Flight Track Log - Related Links

Times and Time Zones

All times are in EDT time to prevent confusion due to time zone crossing. See the TAM3841 flight status page for this flight to view local times or setup timezone preferences in your user account.


Time Position Orientation Groundspeed Altitude Reporting Facility
EDT Latitude Longitude Course Direction KTS MPH feet Rate Location/Type
Thu 03:34:00 PM -4.6437 -41.4213 253° West  Level Estimated
Thu 03:35:00 PM -4.6698 -41.5089 253° West  Level Estimated
Thu 03:36:00 PM -4.6959 -41.5966 253° West  Level Estimated
Thu 03:37:00 PM -4.7220 -41.6842 253° West  Level Estimated
Thu 03:38:00 PM -4.7481 -41.7719 253° West  Level Estimated
Thu 03:39:00 PM -4.7742 -41.8596 253° West  Level Estimated
Thu 03:40:00 PM -4.8002 -41.9472 253° West  Level Estimated
Thu 03:41:00 PM -4.8263 -42.0349 253° West  Level Estimated
Thu 03:42:00 PM -4.8523 -42.1226 253° West  Level Estimated
Thu 03:43:00 PM -4.8783 -42.2103 253° West  Level Estimated
Thu 03:44:00 PM -4.9044 -42.2980 253° West  Level Estimated
Thu 03:45:00 PM -4.9304 -42.3857 253° West  Level Estimated
Thu 03:46:00 PM -4.9563 -42.4734 253° West  Level Estimated
Thu 03:47:00 PM -4.9823 -42.5611 253° West  Level Estimated
Thu 03:48:00 PM -5.0083 -42.6489 253° West  Level Estimated
Thu 03:49:00 PM -5.0342 -42.7366 253° West  Level Estimated
Thu 03:50:00 PM -5.0599 -42.8235 253° West  Level Estimated
Thu 03:51:00 PM -5.0599 -42.8235 135° Southeast  Level Estimated
Thu 03:52:00 PM -5.0599 -42.8235 135° Southeast  Level Estimated
Thu 03:53:00 PM -5.0599 -42.8235 135° Southeast  Level Estimated
Thu 03:54:00 PM -5.0599 -42.8235 135° Southeast  Level Estimated
Thu 03:55:00 PM -5.0599 -42.8235 135° Southeast  Level Estimated
Thu 03:56:00 PM -5.0599 -42.8235 135° Southeast  Level Estimated
Thu 03:57:00 PM -5.0599 -42.8235 135° Southeast  Level Estimated
Thu 03:58:00 PM -5.0599 -42.8235 135° Southeast  Level Estimated
Thu 03:59:00 PM -5.0599 -42.8235 135° Southeast  Level Estimated
Thu 04:00:00 PM -5.0599 -42.8235 135° Southeast  Level Estimated
Thu 04:01:00 PM -5.0599 -42.8235 135° Southeast  Level Estimated
Thu 04:02:00 PM -5.0599 -42.8235 135° Southeast  Level Estimated
Thu 04:03:00 PM -5.0599 -42.8235 135° Southeast  Level Estimated
Thu 04:04:00 PM -5.0599 -42.8235 135° Southeast  Level Estimated
Thu 04:05:00 PM -5.0599 -42.8235 135° Southeast  Level Estimated
Thu 04:06:00 PM -5.0599 -42.8235 135° Southeast  Level Estimated

Login

Don't have an account? Register now (free) for customized features, flight alerts, and more!